createdAt,value
2023-04-03T00:00:15.983Z,97316.63
2023-04-03T00:01:18.007Z,97311.47
2023-04-03T00:02:20.000Z,97312.94
2023-04-03T00:03:22.277Z,97313.94
2023-04-03T00:04:24.189Z,97314.28
2023-04-03T00:05:26.567Z,97319.28
2023-04-03T00:06:28.448Z,97319.97
2023-04-03T00:07:30.320Z,97319.00
2023-04-03T00:08:32.189Z,97315.94
2023-04-03T00:09:34.056Z,97321.63
2023-04-03T00:10:36.227Z,97314.53
2023-04-03T00:11:38.222Z,97320.50
2023-04-03T00:12:40.105Z,97320.34
2023-04-03T00:13:42.549Z,97317.25
2023-04-03T00:14:44.286Z,97307.22
2023-04-03T00:15:46.333Z,97310.78
2023-04-03T00:16:48.269Z,97313.47
2023-04-03T00:17:50.152Z,97312.19
2023-04-03T00:18:52.046Z,97310.28
2023-04-03T00:19:53.940Z,97309.97
2023-04-03T00:20:55.714Z,97308.84
2023-04-03T00:21:57.751Z,97313.69
2023-04-03T00:22:59.624Z,97317.09
2023-04-03T00:24:01.530Z,97319.50
2023-04-03T00:25:03.929Z,97314.34
2023-04-03T00:26:06.032Z,97315.84
2023-04-03T00:27:07.767Z,97315.69
2023-04-03T00:28:09.997Z,97318.09
2023-04-03T00:29:11.935Z,97312.91
2023-04-03T00:30:15.760Z,97316.50
2023-04-03T00:31:17.651Z,97312.91
2023-04-03T00:32:19.619Z,97318.75
2023-04-03T00:33:25.732Z,97318.91
2023-04-03T00:34:27.572Z,97318.28
2023-04-03T00:35:29.777Z,97317.44
2023-04-03T00:36:31.895Z,97310.19
2023-04-03T00:37:33.960Z,97309.22
2023-04-03T00:38:35.979Z,97317.94
2023-04-03T00:39:37.777Z,97312.91
2023-04-03T00:40:42.658Z,97308.06
2023-04-03T00:41:44.390Z,97311.75
2023-04-03T00:42:47.337Z,97309.66
2023-04-03T00:43:49.135Z,97312.38
2023-04-03T00:44:51.075Z,97309.63
2023-04-03T00:45:53.799Z,97307.03
2023-04-03T00:46:55.585Z,97310.28
2023-04-03T00:47:57.688Z,97314.50
2023-04-03T00:48:59.538Z,97309.66
2023-04-03T00:50:01.633Z,97310.97
2023-04-03T00:51:05.074Z,97309.69
2023-04-03T00:52:08.457Z,97312.91
2023-04-03T00:53:12.821Z,97318.31
2023-04-03T00:54:14.634Z,97314.59
2023-04-03T00:55:17.601Z,97314.72
2023-04-03T00:56:22.940Z,97317.28
2023-04-03T00:57:25.099Z,97314.41
2023-04-03T00:58:32.961Z,97314.41
2023-04-03T00:59:36.871Z,97312.25
2023-04-03T01:00:41.796Z,97315.97
2023-04-03T01:01:43.860Z,97309.50
2023-04-03T01:02:46.712Z,97311.56
2023-04-03T01:03:48.585Z,97308.69
2023-04-03T01:04:50.793Z,97316.94
2023-04-03T01:05:52.759Z,97313.53
2023-04-03T01:06:55.590Z,97321.28
2023-04-03T01:07:58.046Z,97312.09
2023-04-03T01:09:00.172Z,97313.03
2023-04-03T01:10:02.963Z,97311.91
2023-04-03T01:11:04.831Z,97307.69
2023-04-03T01:12:17.534Z,97321.13
2023-04-03T01:13:21.448Z,97317.88
2023-04-03T01:14:23.314Z,97317.06
2023-04-03T01:15:27.621Z,97321.13
2023-04-03T01:16:31.583Z,97318.38
2023-04-03T01:17:39.128Z,97318.72
2023-04-03T01:18:41.649Z,97312.59
2023-04-03T01:19:48.650Z,97312.59
2023-04-03T01:20:56.926Z,97310.16
2023-04-03T01:22:21.044Z,97307.41
2023-04-03T01:23:31.517Z,97312.25
2023-04-03T01:24:35.297Z,97316.00
2023-04-03T01:25:38.769Z,97317.13
2023-04-03T01:26:40.691Z,97322.31
2023-04-03T01:27:42.533Z,97323.44
2023-04-03T01:28:44.435Z,97322.16
2023-04-03T01:29:46.817Z,97321.19
2023-04-03T01:31:06.966Z,97321.03
2023-04-03T01:32:09.246Z,97317.94
2023-04-03T01:33:11.178Z,97308.22
2023-04-03T01:34:12.963Z,97317.75
2023-04-03T01:35:14.823Z,97312.59
2023-04-03T01:36:18.755Z,97316.50
2023-04-03T01:37:20.797Z,97317.28
2023-04-03T01:38:22.578Z,97321.16
2023-04-03T01:39:24.525Z,97327.94
2023-04-03T01:40:26.770Z,97324.03
2023-04-03T01:41:28.596Z,97324.88
2023-04-03T01:42:30.704Z,97324.53
2023-04-03T01:43:32.706Z,97319.38
2023-04-03T01:44:34.557Z,97326.94
2023-04-03T01:45:36.287Z,97325.81
2023-04-03T01:46:38.909Z,97325.34
2023-04-03T01:47:40.751Z,97320.84
2023-04-03T01:48:42.705Z,97326.81
2023-04-03T01:49:44.559Z,97321.00
2023-04-03T01:50:46.997Z,97321.28
2023-04-03T01:51:48.767Z,97316.47
2023-04-03T01:52:50.652Z,97331.13
2023-04-03T01:53:53.003Z,97328.53
2023-04-03T01:54:54.759Z,97328.50
2023-04-03T01:55:56.582Z,97331.91
2023-04-03T01:56:58.444Z,97331.53
2023-04-03T01:58:00.213Z,97329.75
2023-04-03T01:59:02.020Z,97325.88
2023-04-03T02:00:04.126Z,97331.28
2023-04-03T02:01:05.910Z,97331.75
2023-04-03T02:02:08.262Z,97330.34
2023-04-03T02:03:10.126Z,97322.09
2023-04-03T02:04:12.686Z,97322.94
2023-04-03T02:05:14.661Z,97320.66
2023-04-03T02:06:16.582Z,97322.28
2023-04-03T02:07:18.357Z,97325.53
2023-04-03T02:08:20.221Z,97333.09
2023-04-03T02:09:22.040Z,97327.78
2023-04-03T02:10:23.830Z,97327.47
2023-04-03T02:11:25.676Z,97322.81
2023-04-03T02:12:27.496Z,97326.50
2023-04-03T02:13:29.305Z,97325.03
2023-04-03T02:14:31.112Z,97323.88
2023-04-03T02:15:32.839Z,97325.66
2023-04-03T02:16:34.624Z,97321.97
2023-04-03T02:17:36.544Z,97317.28
2023-04-03T02:18:38.713Z,97320.69
2023-04-03T02:19:40.891Z,97319.06
2023-04-03T02:20:42.794Z,97310.66
2023-04-03T02:21:44.646Z,97315.31
2023-04-03T02:22:46.473Z,97315.19
2023-04-03T02:23:48.304Z,97317.91
2023-04-03T02:24:50.159Z,97316.13
2023-04-03T02:25:51.908Z,97317.75
2023-04-03T02:26:53.617Z,97319.69
2023-04-03T02:27:55.442Z,97319.69
2023-04-03T02:28:57.356Z,97319.50
2023-04-03T02:29:59.192Z,97320.59
2023-04-03T02:31:01.110Z,97314.78
2023-04-03T02:32:02.891Z,97319.81
2023-04-03T02:33:04.752Z,97319.81
2023-04-03T02:34:07.080Z,97320.13
2023-04-03T02:35:09.253Z,97316.28
2023-04-03T02:36:11.191Z,97316.47
2023-04-03T02:37:13.185Z,97312.22
2023-04-03T02:38:14.908Z,97326.63
2023-04-03T02:39:17.447Z,97325.34
2023-04-03T02:40:19.523Z,97316.63
2023-04-03T02:41:22.303Z,97326.19
2023-04-03T02:42:24.083Z,97321.50
2023-04-03T02:43:25.953Z,97317.78
2023-04-03T02:44:27.672Z,97321.69
2023-04-03T02:45:29.564Z,97318.13
2023-04-03T02:46:31.410Z,97323.63
2023-04-03T02:47:33.221Z,97321.97
2023-04-03T02:48:35.123Z,97317.47
2023-04-03T02:49:36.955Z,97322.81
2023-04-03T02:50:39.058Z,97319.38
2023-04-03T02:51:40.882Z,97318.06
2023-04-03T02:52:42.663Z,97318.88
2023-04-03T02:53:44.610Z,97318.56
2023-04-03T02:54:46.356Z,97326.03
2023-04-03T02:55:48.129Z,97323.22
2023-04-03T02:56:50.934Z,97324.66
2023-04-03T02:57:52.695Z,97319.66
2023-04-03T02:58:54.450Z,97325.78
2023-04-03T02:59:56.245Z,97321.75
2023-04-03T03:00:58.106Z,97321.75
2023-04-03T03:02:00.009Z,97324.00
2023-04-03T03:03:02.381Z,97323.56
2023-04-03T03:04:04.441Z,97322.28
2023-04-03T03:05:07.181Z,97322.59
2023-04-03T03:06:10.933Z,97324.25
2023-04-03T03:07:12.734Z,97324.38
2023-04-03T03:08:14.444Z,97321.00
2023-04-03T03:09:16.241Z,97323.75
2023-04-03T03:10:18.084Z,97329.06
2023-04-03T03:11:19.974Z,97324.69
2023-04-03T03:12:23.086Z,97324.25
2023-04-03T03:13:24.986Z,97325.56
2023-04-03T03:14:26.745Z,97323.47
2023-04-03T03:15:28.529Z,97318.13
2023-04-03T03:16:30.664Z,97323.16
2023-04-03T03:17:32.571Z,97315.53
2023-04-03T03:18:35.105Z,97317.78
2023-04-03T03:19:36.978Z,97323.91
2023-04-03T03:20:38.907Z,97322.31
2023-04-03T03:21:40.800Z,97322.81
2023-04-03T03:22:42.650Z,97323.28
2023-04-03T03:23:44.437Z,97317.03
2023-04-03T03:24:46.413Z,97324.59
2023-04-03T03:25:48.247Z,97319.44
2023-04-03T03:26:50.054Z,97322.00
2023-04-03T03:27:51.862Z,97317.69
2023-04-03T03:28:53.728Z,97317.50
2023-04-03T03:29:55.726Z,97318.94
2023-04-03T03:30:58.026Z,97317.81
2023-04-03T03:31:59.976Z,97316.84
2023-04-03T03:33:01.933Z,97320.09
2023-04-03T03:34:03.821Z,97315.72
2023-04-03T03:35:05.853Z,97312.47
2023-04-03T03:36:08.272Z,97317.13
2023-04-03T03:37:10.251Z,97322.31
2023-04-03T03:38:12.262Z,97311.66
2023-04-03T03:39:14.115Z,97317.47
2023-04-03T03:40:16.080Z,97314.88
2023-04-03T03:41:19.866Z,97313.28
2023-04-03T03:42:21.745Z,97312.28
2023-04-03T03:43:23.504Z,97310.34
2023-04-03T03:44:25.453Z,97313.28
2023-04-03T03:45:27.319Z,97311.00
2023-04-03T03:46:29.127Z,97318.91
2023-04-03T03:47:31.194Z,97316.34
2023-04-03T03:48:32.977Z,97316.34
2023-04-03T03:49:34.768Z,97319.72
2023-04-03T03:50:36.564Z,97313.44
2023-04-03T03:51:38.839Z,97313.13
2023-04-03T03:52:40.697Z,97312.94
2023-04-03T03:53:42.518Z,97315.88
2023-04-03T03:54:44.394Z,97313.56
2023-04-03T03:55:46.464Z,97316.78
2023-04-03T03:56:48.213Z,97315.00
2023-04-03T03:57:50.021Z,97306.78
2023-04-03T03:58:51.873Z,97309.38
2023-04-03T03:59:54.046Z,97312.59
2023-04-03T04:00:56.312Z,97314.97
2023-04-03T04:01:58.146Z,97311.72
2023-04-03T04:03:00.299Z,97304.81
2023-04-03T04:04:02.311Z,97310.78
2023-04-03T04:05:04.253Z,97310.78
2023-04-03T04:06:06.315Z,97308.66
2023-04-03T04:07:08.085Z,97304.78
2023-04-03T04:08:09.957Z,97310.59
2023-04-03T04:09:11.767Z,97308.66
2023-04-03T04:10:14.926Z,97303.78
2023-04-03T04:11:16.847Z,97310.88
2023-04-03T04:12:18.569Z,97307.03
2023-04-03T04:13:20.528Z,97306.56
2023-04-03T04:14:22.310Z,97311.44
2023-04-03T04:15:24.234Z,97305.28
2023-04-03T04:16:26.042Z,97307.41
2023-04-03T04:17:27.810Z,97308.53
2023-04-03T04:18:29.740Z,97312.09
2023-04-03T04:19:31.813Z,97313.53
2023-04-03T04:20:33.619Z,97303.19
2023-04-03T04:21:36.013Z,97315.19
2023-04-03T04:22:39.052Z,97316.13
2023-04-03T04:23:40.882Z,97310.31
2023-04-03T04:24:42.729Z,97310.97
2023-04-03T04:25:48.065Z,97310.16
2023-04-03T04:26:49.961Z,97308.03
2023-04-03T04:27:51.832Z,97310.44
2023-04-03T04:28:53.608Z,97309.50
2023-04-03T04:29:55.982Z,97314.34
2023-04-03T04:30:58.794Z,97312.59
2023-04-03T04:32:00.600Z,97308.38
2023-04-03T04:33:02.756Z,97306.59
2023-04-03T04:34:04.542Z,97314.66
2023-04-03T04:35:07.090Z,97314.00
2023-04-03T04:36:09.090Z,97311.44
2023-04-03T04:37:11.171Z,97314.00
2023-04-03T04:38:12.949Z,97314.81
2023-04-03T04:39:14.689Z,97317.41
2023-04-03T04:40:16.506Z,97314.81
2023-04-03T04:41:19.018Z,97318.69
2023-04-03T04:42:20.939Z,97315.44
2023-04-03T04:43:22.727Z,97315.44
2023-04-03T04:44:24.448Z,97324.84
2023-04-03T04:45:26.211Z,97317.72
2023-04-03T04:46:28.007Z,97320.97
2023-04-03T04:47:30.997Z,97320.66
2023-04-03T04:48:33.213Z,97323.22
2023-04-03T04:49:35.021Z,97330.84
2023-04-03T04:50:36.825Z,97331.34
2023-04-03T04:51:50.893Z,97328.75
2023-04-03T04:52:53.964Z,97330.50
2023-04-03T04:53:56.273Z,97323.75
2023-04-03T04:54:58.211Z,97326.19
2023-04-03T04:56:00.129Z,97324.38
2023-04-03T04:57:01.876Z,97324.25
2023-04-03T04:58:03.694Z,97331.97
2023-04-03T04:59:05.397Z,97328.38
2023-04-03T05:00:07.463Z,97332.88
2023-04-03T05:01:10.256Z,97331.28
2023-04-03T05:02:11.990Z,97326.41
2023-04-03T05:03:14.018Z,97335.94
2023-04-03T05:04:16.301Z,97326.72
2023-04-03T05:05:18.201Z,97324.78
2023-04-03T05:06:20.086Z,97322.22
2023-04-03T05:07:21.852Z,97324.78
2023-04-03T05:08:23.806Z,97328.03
2023-04-03T05:09:25.714Z,97329.34
2023-04-03T05:10:27.552Z,97329.16
2023-04-03T05:11:29.330Z,97330.94
2023-04-03T05:12:31.190Z,97326.75
2023-04-03T05:13:33.086Z,97334.34
2023-04-03T05:14:34.892Z,97334.03
2023-04-03T05:15:36.942Z,97341.16
2023-04-03T05:16:38.995Z,97343.72
2023-04-03T05:17:40.824Z,97338.06
2023-04-03T05:18:42.635Z,97338.38
2023-04-03T05:19:44.508Z,97337.88
2023-04-03T05:20:46.300Z,97344.97
2023-04-03T05:21:48.310Z,97345.09
2023-04-03T05:22:50.133Z,97340.84
2023-04-03T05:23:52.730Z,97354.13
2023-04-03T05:24:54.582Z,97346.22
2023-04-03T05:25:56.322Z,97345.25
2023-04-03T05:26:58.216Z,97349.63
2023-04-03T05:27:59.940Z,97352.19
2023-04-03T05:29:01.760Z,97349.75
2023-04-03T05:30:04.235Z,97355.41
2023-04-03T05:31:06.172Z,97359.44
2023-04-03T05:32:07.981Z,97355.09
2023-04-03T05:33:09.845Z,97354.28
2023-04-03T05:34:11.732Z,97356.72
2023-04-03T05:35:13.618Z,97358.28
2023-04-03T05:36:15.681Z,97356.34
2023-04-03T05:37:17.582Z,97352.00
2023-04-03T05:38:19.816Z,97361.69
2023-04-03T05:39:22.268Z,97365.06
2023-04-03T05:40:24.152Z,97351.84
2023-04-03T05:41:26.154Z,97356.72
2023-04-03T05:42:28.164Z,97361.59
2023-04-03T05:43:30.032Z,97367.25
2023-04-03T05:44:31.917Z,97361.28
2023-04-03T05:45:33.767Z,97365.63
2023-04-03T05:46:35.795Z,97365.63
2023-04-03T05:47:37.500Z,97364.84
2023-04-03T05:48:39.477Z,97365.50
2023-04-03T05:49:42.181Z,97369.81
2023-04-03T05:50:44.738Z,97368.06
2023-04-03T05:51:46.541Z,97376.13
2023-04-03T05:52:50.159Z,97369.63
2023-04-03T05:53:53.834Z,97372.22
2023-04-03T05:54:56.297Z,97368.38
2023-04-03T05:55:58.107Z,97367.09
2023-04-03T05:56:59.953Z,97365.16
2023-04-03T05:58:01.779Z,97367.47
2023-04-03T05:59:03.613Z,97366.34
2023-04-03T06:00:07.398Z,97367.28
2023-04-03T06:01:09.345Z,97367.47
2023-04-03T06:02:15.222Z,97370.72
2023-04-03T06:03:18.057Z,97370.38
2023-04-03T06:04:22.422Z,97370.38
2023-04-03T06:05:25.000Z,97373.63
2023-04-03T06:06:26.811Z,97368.97
2023-04-03T06:07:29.917Z,97371.84
2023-04-03T06:08:31.790Z,97376.22
2023-04-03T06:09:33.614Z,97371.03
2023-04-03T06:10:36.173Z,97376.06
2023-04-03T06:11:38.156Z,97369.59
2023-04-03T06:12:39.989Z,97372.97
2023-04-03T06:13:41.915Z,97378.78
2023-04-03T06:14:43.712Z,97378.28
2023-04-03T06:15:45.639Z,97372.97
2023-04-03T06:16:47.557Z,97378.13
2023-04-03T06:17:49.367Z,97371.84
2023-04-03T06:18:51.350Z,97379.13
2023-04-03T06:19:53.477Z,97378.00
2023-04-03T06:20:55.242Z,97375.91
2023-04-03T06:21:57.287Z,97380.91
2023-04-03T06:22:59.105Z,97383.34
2023-04-03T06:24:01.677Z,97383.19
2023-04-03T06:25:03.828Z,97382.22
2023-04-03T06:26:06.878Z,97382.41
2023-04-03T06:27:09.539Z,97384.63
2023-04-03T06:28:11.450Z,97385.59
2023-04-03T06:29:13.428Z,97384.47
2023-04-03T06:30:15.385Z,97381.88
2023-04-03T06:31:18.189Z,97384.31
2023-04-03T06:32:20.073Z,97378.19
2023-04-03T06:33:21.882Z,97384.00
2023-04-03T06:34:23.819Z,97389.19
2023-04-03T06:35:26.583Z,97381.56
2023-04-03T06:36:28.320Z,97383.34
2023-04-03T06:37:31.199Z,97387.72
2023-04-03T06:38:33.878Z,97386.09
2023-04-03T06:39:36.153Z,97388.34
2023-04-03T06:40:38.181Z,97387.81
2023-04-03T06:41:40.329Z,97384.72
2023-04-03T06:42:42.114Z,97383.44
2023-04-03T06:43:44.618Z,97385.91
2023-04-03T06:44:46.507Z,97386.69
2023-04-03T06:45:48.290Z,97387.03
2023-04-03T06:46:50.056Z,97384.56
2023-04-03T06:47:52.024Z,97382.13
2023-04-03T06:48:55.015Z,97381.03
2023-04-03T06:49:57.528Z,97388.44
2023-04-03T06:50:59.620Z,97387.91
2023-04-03T06:52:02.683Z,97394.41
2023-04-03T06:53:05.098Z,97391.81
2023-04-03T06:54:07.715Z,97393.31
2023-04-03T06:55:10.452Z,97396.56
2023-04-03T06:56:12.358Z,97396.38
2023-04-03T06:57:14.871Z,97398.00
2023-04-03T06:58:19.882Z,97397.22
2023-04-03T06:59:22.779Z,97400.13
2023-04-03T07:00:24.627Z,97398.53
2023-04-03T07:01:29.032Z,97403.34
2023-04-03T07:02:31.023Z,97404.97
2023-04-03T07:03:34.514Z,97395.28
2023-04-03T07:04:37.551Z,97405.63
2023-04-03T07:05:39.420Z,97405.44
2023-04-03T07:06:41.915Z,97408.88
2023-04-03T07:07:43.762Z,97401.41
2023-04-03T07:08:46.579Z,97404.97
2023-04-03T07:09:49.311Z,97404.97
2023-04-03T07:10:51.813Z,97409.81
2023-04-03T07:11:53.588Z,97411.13
2023-04-03T07:12:55.387Z,97406.63
2023-04-03T07:13:58.108Z,97409.56
2023-04-03T07:14:59.920Z,97412.81
2023-04-03T07:16:02.333Z,97407.00
2023-04-03T07:17:04.151Z,97411.19
2023-04-03T07:18:07.295Z,97411.84
2023-04-03T07:19:10.068Z,97415.06
2023-04-03T07:20:12.239Z,97409.75
2023-04-03T07:21:14.323Z,97410.75
2023-04-03T07:22:16.080Z,97413.97
2023-04-03T07:23:17.921Z,97410.94
2023-04-03T07:24:19.798Z,97417.41
2023-04-03T07:25:21.697Z,97415.47
2023-04-03T07:26:23.630Z,97417.09
2023-04-03T07:27:26.363Z,97414.19
2023-04-03T07:28:28.394Z,97410.19
2023-04-03T07:29:30.180Z,97414.38
2023-04-03T07:30:32.069Z,97412.31
2023-04-03T07:31:35.015Z,97409.44
2023-04-03T07:32:37.032Z,97414.75
2023-04-03T07:33:39.310Z,97419.16
2023-04-03T07:34:41.241Z,97417.22
2023-04-03T07:35:43.561Z,97413.78
2023-04-03T07:36:45.644Z,97401.69
2023-04-03T07:37:47.517Z,97412.47
2023-04-03T07:38:49.454Z,97403.75
2023-04-03T07:39:52.220Z,97412.97
2023-04-03T07:40:54.054Z,97406.38
2023-04-03T07:41:58.700Z,97408.63
2023-04-03T07:43:00.933Z,97406.53
2023-04-03T07:44:03.677Z,97409.31
2023-04-03T07:45:05.891Z,97413.69
2023-04-03T07:46:07.848Z,97412.75
2023-04-03T07:47:09.900Z,97406.59
2023-04-03T07:48:12.968Z,97416.50
2023-04-03T07:49:14.739Z,97412.78
2023-04-03T07:50:17.135Z,97418.91
2023-04-03T07:51:18.913Z,97408.72
2023-04-03T07:52:20.885Z,97409.19
2023-04-03T07:53:22.755Z,97410.19
2023-04-03T07:54:24.605Z,97403.59
2023-04-03T07:55:26.580Z,97408.91
2023-04-03T07:56:29.103Z,97409.22
2023-04-03T07:57:31.015Z,97412.78
2023-04-03T07:58:32.947Z,97413.59
2023-04-03T07:59:35.167Z,97415.41
2023-04-03T08:00:36.941Z,97414.59
2023-04-03T08:01:38.985Z,97409.88
2023-04-03T08:02:40.932Z,97416.69
2023-04-03T08:03:42.857Z,97422.03
2023-04-03T08:04:44.916Z,97410.72
2023-04-03T08:05:47.916Z,97411.53
2023-04-03T08:06:49.821Z,97413.97
2023-04-03T08:07:51.614Z,97418.84
2023-04-03T08:08:53.420Z,97415.16
2023-04-03T08:09:55.200Z,97412.38
2023-04-03T08:10:59.169Z,97412.88
2023-04-03T08:12:00.978Z,97412.38
2023-04-03T08:13:02.851Z,97404.28
2023-04-03T08:14:04.737Z,97408.50
2023-04-03T08:15:07.597Z,97403.81
2023-04-03T08:16:10.426Z,97408.50
2023-04-03T08:17:15.237Z,97405.44
2023-04-03T08:18:17.470Z,97407.38
2023-04-03T08:19:26.173Z,97396.38
2023-04-03T08:20:28.958Z,97399.47
2023-04-03T08:21:30.741Z,97390.53
2023-04-03T08:22:32.645Z,97408.34
2023-04-03T08:23:34.547Z,97398.81
2023-04-03T08:24:37.686Z,97404.94
2023-04-03T08:25:42.017Z,97407.38
2023-04-03T08:26:43.796Z,97400.56
2023-04-03T08:27:46.037Z,97405.59
2023-04-03T08:28:48.189Z,97402.84
2023-04-03T08:29:50.036Z,97405.75
2023-04-03T08:30:52.399Z,97404.78
2023-04-03T08:31:54.466Z,97401.22
2023-04-03T08:32:56.635Z,97405.44
2023-04-03T08:33:58.872Z,97401.53
2023-04-03T08:35:00.641Z,97404.06
2023-04-03T08:36:03.029Z,97406.97
2023-04-03T08:37:04.872Z,97402.44
2023-04-03T08:38:06.785Z,97414.38
2023-04-03T08:39:09.096Z,97411.09
2023-04-03T08:40:14.955Z,97405.28
2023-04-03T08:41:31.625Z,97407.06
2023-04-03T08:42:45.167Z,97407.53
2023-04-03T08:44:05.858Z,97406.56
2023-04-03T08:45:30.858Z,97407.56
2023-04-03T08:46:39.520Z,97406.91
2023-04-03T08:47:44.553Z,97409.47
2023-04-03T08:48:47.186Z,97402.03
2023-04-03T08:49:52.544Z,97405.78
2023-04-03T08:50:56.367Z,97399.81
2023-04-03T08:51:59.942Z,97397.22
2023-04-03T08:53:04.965Z,97398.16
2023-04-03T08:54:15.837Z,97400.88
2023-04-03T08:55:17.546Z,97405.25
2023-04-03T08:56:20.415Z,97397.34
2023-04-03T08:57:29.317Z,97397.66
2023-04-03T08:58:34.228Z,97400.75
2023-04-03T08:59:38.325Z,97396.38
2023-04-03T09:00:51.556Z,97408.22
2023-04-03T09:01:53.570Z,97400.31
2023-04-03T09:02:56.445Z,97405.63
2023-04-03T09:03:58.388Z,97403.81
2023-04-03T09:05:00.608Z,97416.13
2023-04-03T09:06:12.137Z,97416.41
2023-04-03T09:07:18.344Z,97417.22
2023-04-03T09:08:28.448Z,97426.81
2023-04-03T09:09:36.418Z,97428.22
2023-04-03T09:10:40.154Z,97430.53
2023-04-03T09:11:42.694Z,97438.41
2023-04-03T09:12:48.310Z,97436.59
2023-04-03T09:14:08.438Z,97439.41
2023-04-03T09:15:35.599Z,97438.91
2023-04-03T09:16:49.196Z,97439.69
2023-04-03T09:18:00.009Z,97444.44
2023-04-03T09:19:27.961Z,97448.16
2023-04-03T09:20:48.808Z,97447.44
2023-04-03T09:21:50.615Z,97452.28
2023-04-03T09:22:54.157Z,97456.25
2023-04-03T09:24:01.133Z,97452.06
2023-04-03T09:25:14.279Z,97457.38
2023-04-03T09:26:22.134Z,97451.03
2023-04-03T09:27:24.036Z,97451.25
2023-04-03T09:28:26.682Z,97446.59
2023-04-03T09:29:29.751Z,97440.31
2023-04-03T09:30:31.651Z,97452.28
2023-04-03T09:31:41.853Z,97446.78
2023-04-03T09:32:48.976Z,97445.47
2023-04-03T09:33:52.987Z,97445.47
2023-04-03T09:34:56.997Z,97444.88
2023-04-03T09:36:00.017Z,97446.78
2023-04-03T09:37:07.464Z,97450.56
2023-04-03T09:38:12.050Z,97446.66
2023-04-03T09:39:18.512Z,97446.50
2023-04-03T09:40:26.606Z,97443.31
2023-04-03T09:41:28.510Z,97450.47
2023-04-03T09:42:31.241Z,97437.25
2023-04-03T09:43:34.326Z,97440.56
2023-04-03T09:44:37.286Z,97438.81
2023-04-03T09:45:39.144Z,97442.56
2023-04-03T09:46:41.043Z,97449.34
2023-04-03T09:47:43.350Z,97445.81
2023-04-03T09:49:01.338Z,97445.50
2023-04-03T09:50:16.074Z,97451.84
2023-04-03T09:51:17.922Z,97452.03
2023-04-03T09:52:21.065Z,97438.66
2023-04-03T09:53:31.676Z,97444.34
2023-04-03T09:54:41.644Z,97447.56
2023-04-03T09:55:44.541Z,97447.72
2023-04-03T09:56:51.014Z,97443.06
2023-04-03T09:57:53.677Z,97441.13
2023-04-03T09:59:02.533Z,97443.06
2023-04-03T10:00:06.228Z,97440.91
2023-04-03T10:01:22.066Z,97439.16
2023-04-03T10:02:30.021Z,97437.66
2023-04-03T10:03:36.804Z,97443.06
2023-04-03T10:04:40.026Z,97446.31
2023-04-03T10:05:42.810Z,97445.69
2023-04-03T10:06:47.923Z,97436.13
2023-04-03T10:09:01.252Z,97446.97
2023-04-03T10:10:21.381Z,97446.59
2023-04-03T10:11:24.497Z,97451.47
2023-04-03T10:12:26.302Z,97454.22
2023-04-03T10:13:28.313Z,97444.16
2023-04-03T10:14:31.295Z,97443.34
2023-04-03T10:15:37.455Z,97453.34
2023-04-03T10:16:43.168Z,97455.94
2023-04-03T10:17:54.784Z,97454.47
2023-04-03T10:19:02.656Z,97449.00
2023-04-03T10:20:07.761Z,97451.88
2023-04-03T10:21:27.237Z,97463.69
2023-04-03T10:22:32.458Z,97460.00
2023-04-03T10:23:56.174Z,97455.78
2023-04-03T10:25:17.444Z,97462.59
2023-04-03T10:26:40.546Z,97455.63
2023-04-03T10:28:02.592Z,97461.31
2023-04-03T10:29:08.158Z,97454.84
2023-04-03T10:30:28.275Z,97459.16
2023-04-03T10:31:30.064Z,97469.03
2023-04-03T10:32:32.696Z,97466.94
2023-04-03T10:33:47.196Z,97461.47
2023-04-03T10:34:58.606Z,97462.63
2023-04-03T10:36:25.136Z,97459.38
2023-04-03T10:37:41.735Z,97467.19
2023-04-03T10:38:52.337Z,97469.00
2023-04-03T10:40:07.167Z,97473.56
2023-04-03T10:41:16.432Z,97462.06
2023-04-03T10:42:22.143Z,97462.56
2023-04-03T10:43:27.120Z,97467.41
2023-04-03T10:44:31.730Z,97472.44
2023-04-03T10:45:34.336Z,97468.38
2023-04-03T10:46:54.713Z,97470.00
2023-04-03T10:48:15.622Z,97460.91
2023-04-03T10:49:26.646Z,97467.72
2023-04-03T10:50:33.087Z,97462.88
2023-04-03T10:51:46.148Z,97464.19
2023-04-03T10:53:09.548Z,97470.19
2023-04-03T10:54:14.317Z,97459.66
2023-04-03T10:55:19.014Z,97460.31
2023-04-03T10:56:21.467Z,97461.94
2023-04-03T10:57:25.188Z,97460.97
2023-04-03T10:58:37.606Z,97466.97
2023-04-03T10:59:45.035Z,97469.88
2023-04-03T11:00:49.214Z,97459.84
2023-04-03T11:01:57.248Z,97458.03
2023-04-03T11:03:01.419Z,97462.03
2023-04-03T11:04:05.326Z,97462.56
2023-04-03T11:05:11.622Z,97460.94
2023-04-03T11:06:15.953Z,97448.66
2023-04-03T11:07:23.357Z,97451.91
2023-04-03T11:08:37.514Z,97448.38
2023-04-03T11:09:43.002Z,97447.59
2023-04-03T11:10:50.918Z,97447.91
2023-04-03T11:11:54.395Z,97448.09
2023-04-03T11:13:03.960Z,97449.78
2023-04-03T11:14:27.303Z,97450.13
2023-04-03T11:15:30.415Z,97449.78
2023-04-03T11:16:43.312Z,97447.34
2023-04-03T11:17:52.370Z,97448.84
2023-04-03T11:19:14.812Z,97448.00
2023-04-03T11:20:22.810Z,97445.59
2023-04-03T11:21:31.768Z,97447.22
2023-04-03T11:22:37.878Z,97444.97
2023-04-03T11:23:48.789Z,97445.63
2023-04-03T11:24:58.098Z,97441.38
2023-04-03T11:26:07.954Z,97445.94
2023-04-03T11:27:17.228Z,97443.34
2023-04-03T11:28:19.002Z,97443.97
2023-04-03T11:29:34.212Z,97449.34
2023-04-03T11:30:43.037Z,97446.41
2023-04-03T11:32:03.110Z,97443.81
2023-04-03T11:33:17.739Z,97443.00
2023-04-03T11:34:26.039Z,97441.06
2023-04-03T11:35:28.451Z,97436.84
2023-04-03T11:36:35.778Z,97434.28
2023-04-03T11:37:46.108Z,97440.09
2023-04-03T11:38:49.836Z,97436.66
2023-04-03T11:39:57.940Z,97432.13
2023-04-03T11:40:59.920Z,97435.06
2023-04-03T11:42:19.138Z,97436.19
2023-04-03T11:43:27.363Z,97430.19
2023-04-03T11:44:37.884Z,97428.59
2023-04-03T11:45:52.168Z,97431.47
2023-04-03T11:46:57.684Z,97433.59
2023-04-03T11:48:07.316Z,97428.22
2023-04-03T11:49:37.894Z,97421.84
2023-04-03T11:50:39.993Z,97416.78
2023-04-03T11:51:42.758Z,97428.16
2023-04-03T11:52:44.875Z,97414.06
2023-04-03T11:53:47.039Z,97426.38
2023-04-03T11:54:49.584Z,97426.56
2023-04-03T11:55:51.352Z,97420.22
2023-04-03T11:56:53.144Z,97424.78
2023-04-03T11:58:00.943Z,97427.75
2023-04-03T11:59:11.711Z,97431.00
2023-04-03T12:00:32.243Z,97437.50
2023-04-03T12:01:45.878Z,97438.97
2023-04-03T12:02:54.427Z,97439.28
2023-04-03T12:04:07.684Z,97427.97
2023-04-03T12:05:29.617Z,97430.88
2023-04-03T12:06:34.049Z,97429.22
2023-04-03T12:07:35.755Z,97432.31
2023-04-03T12:08:40.678Z,97427.78
2023-04-03T12:09:43.316Z,97425.84
2023-04-03T12:11:05.201Z,97429.41
2023-04-03T12:12:29.583Z,97420.19
2023-04-03T12:13:31.878Z,97426.81
2023-04-03T12:14:33.711Z,97428.28
2023-04-03T12:15:35.790Z,97420.50
2023-04-03T12:16:40.830Z,97420.00
2023-04-03T12:17:42.956Z,97420.66
2023-04-03T12:18:44.949Z,97412.56
2023-04-03T12:19:48.345Z,97412.88
2023-04-03T12:20:50.328Z,97410.28
2023-04-03T12:21:59.510Z,97407.69
2023-04-03T12:23:30.469Z,97409.31
2023-04-03T12:24:33.590Z,97413.34
2023-04-03T12:25:49.021Z,97410.94
2023-04-03T12:26:57.236Z,97408.31
2023-04-03T12:27:59.133Z,97407.66
2023-04-03T12:29:04.272Z,97404.88
2023-04-03T12:30:06.436Z,97405.88
2023-04-03T12:32:22.792Z,97408.47
2023-04-03T12:33:41.807Z,97401.81
2023-04-03T12:34:58.965Z,97412.66
2023-04-03T12:36:08.035Z,97411.06